sensor_id;sensor_type;location;lat;lon;timestamp;P1;durP1;ratioP1;P2;durP2;ratioP2
72755;SDS011;60881;55.002;73.232;2022-07-29T00:01:27;8.15;;;3.75;;
72755;SDS011;60881;55.002;73.232;2022-07-29T00:04:00;7.82;;;3.40;;
72755;SDS011;60881;55.002;73.232;2022-07-29T00:06:28;9.90;;;3.58;;
72755;SDS011;60881;55.002;73.232;2022-07-29T00:08:55;9.27;;;3.17;;
72755;SDS011;60881;55.002;73.232;2022-07-29T00:11:22;5.63;;;2.80;;
72755;SDS011;60881;55.002;73.232;2022-07-29T00:13:54;5.03;;;2.80;;
72755;SDS011;60881;55.002;73.232;2022-07-29T00:16:21;5.63;;;2.58;;
72755;SDS011;60881;55.002;73.232;2022-07-29T00:18:48;6.63;;;2.47;;
72755;SDS011;60881;55.002;73.232;2022-07-29T00:21:15;4.38;;;2.58;;
72755;SDS011;60881;55.002;73.232;2022-07-29T00:23:43;11.05;;;2.40;;
72755;SDS011;60881;55.002;73.232;2022-07-29T00:26:11;7.70;;;2.40;;
72755;SDS011;60881;55.002;73.232;2022-07-29T00:28:47;4.68;;;2.22;;
72755;SDS011;60881;55.002;73.232;2022-07-29T00:31:14;3.88;;;2.28;;
72755;SDS011;60881;55.002;73.232;2022-07-29T00:33:40;2.88;;;1.90;;
72755;SDS011;60881;55.002;73.232;2022-07-29T00:36:07;4.85;;;2.17;;
72755;SDS011;60881;55.002;73.232;2022-07-29T00:38:34;5.38;;;2.63;;
72755;SDS011;60881;55.002;73.232;2022-07-29T00:41:01;2.88;;;1.73;;
72755;SDS011;60881;55.002;73.232;2022-07-29T00:43:28;4.05;;;1.75;;
72755;SDS011;60881;55.002;73.232;2022-07-29T00:45:55;3.67;;;1.75;;
72755;SDS011;60881;55.002;73.232;2022-07-29T00:48:26;3.55;;;1.77;;
72755;SDS011;60881;55.002;73.232;2022-07-29T00:50:54;2.38;;;1.50;;
72755;SDS011;60881;55.002;73.232;2022-07-29T00:53:31;2.30;;;1.70;;
72755;SDS011;60881;55.002;73.232;2022-07-29T00:56:02;2.05;;;1.55;;
72755;SDS011;60881;55.002;73.232;2022-07-29T00:58:29;4.57;;;1.70;;
72755;SDS011;60881;55.002;73.232;2022-07-29T01:00:55;1.90;;;1.60;;
72755;SDS011;60881;55.002;73.232;2022-07-29T01:03:23;3.67;;;1.67;;
72755;SDS011;60881;55.002;73.232;2022-07-29T01:05:51;2.83;;;1.63;;
72755;SDS011;60881;55.002;73.232;2022-07-29T01:08:19;3.90;;;2.40;;
72755;SDS011;60881;55.002;73.232;2022-07-29T01:10:48;7.57;;;1.67;;
72755;SDS011;60881;55.002;73.232;2022-07-29T01:13:19;9.98;;;2.35;;
72755;SDS011;60881;55.002;73.232;2022-07-29T01:15:49;4.93;;;2.15;;
72755;SDS011;60881;55.002;73.232;2022-07-29T01:29:35;3.60;;;2.15;;
72755;SDS011;60881;55.002;73.232;2022-07-29T01:40:31;10.75;;;4.82;;
72755;SDS011;60881;55.002;73.232;2022-07-29T01:43:21;5.43;;;2.90;;
72755;SDS011;60881;55.002;73.232;2022-07-29T01:45:53;5.35;;;2.40;;
72755;SDS011;60881;55.002;73.232;2022-07-29T01:51:29;8.05;;;2.63;;
72755;SDS011;60881;55.002;73.232;2022-07-29T01:56:49;3.63;;;2.47;;
72755;SDS011;60881;55.002;73.232;2022-07-29T01:59:19;4.90;;;2.70;;
72755;SDS011;60881;55.002;73.232;2022-07-29T02:01:47;6.38;;;2.38;;
72755;SDS011;60881;55.002;73.232;2022-07-29T02:04:23;7.80;;;2.72;;
72755;SDS011;60881;55.002;73.232;2022-07-29T02:06:52;5.82;;;2.55;;
72755;SDS011;60881;55.002;73.232;2022-07-29T02:09:22;4.68;;;2.75;;
72755;SDS011;60881;55.002;73.232;2022-07-29T02:11:52;8.10;;;2.70;;
72755;SDS011;60881;55.002;73.232;2022-07-29T02:14:22;16.50;;;3.05;;
72755;SDS011;60881;55.002;73.232;2022-07-29T02:16:51;6.25;;;2.85;;
72755;SDS011;60881;55.002;73.232;2022-07-29T02:19:21;9.27;;;2.95;;
72755;SDS011;60881;55.002;73.232;2022-07-29T02:21:50;7.38;;;3.03;;
72755;SDS011;60881;55.002;73.232;2022-07-29T02:24:30;10.55;;;3.05;;
72755;SDS011;60881;55.002;73.232;2022-07-29T02:26:58;6.65;;;3.08;;
72755;SDS011;60881;55.002;73.232;2022-07-29T02:29:26;14.45;;;3.17;;
72755;SDS011;60881;55.002;73.232;2022-07-29T02:31:54;7.03;;;2.88;;
72755;SDS011;60881;55.002;73.232;2022-07-29T02:34:22;9.88;;;3.10;;
72755;SDS011;60881;55.002;73.232;2022-07-29T02:36:50;4.03;;;2.38;;
72755;SDS011;60881;55.002;73.232;2022-07-29T02:39:19;8.48;;;2.70;;
72755;SDS011;60881;55.002;73.232;2022-07-29T02:41:52;7.03;;;2.80;;
72755;SDS011;60881;55.002;73.232;2022-07-29T02:44:24;6.43;;;2.70;;
72755;SDS011;60881;55.002;73.232;2022-07-29T02:46:54;5.13;;;2.40;;
72755;SDS011;60881;55.002;73.232;2022-07-29T02:52:31;9.60;;;2.60;;
72755;SDS011;60881;55.002;73.232;2022-07-29T02:55:17;3.78;;;2.40;;
72755;SDS011;60881;55.002;73.232;2022-07-29T02:57:51;5.80;;;2.03;;
72755;SDS011;60881;55.002;73.232;2022-07-29T03:00:28;5.07;;;2.10;;
72755;SDS011;60881;55.002;73.232;2022-07-29T03:02:58;13.55;;;2.20;;
72755;SDS011;60881;55.002;73.232;2022-07-29T03:05:29;5.07;;;2.05;;
72755;SDS011;60881;55.002;73.232;2022-07-29T03:08:04;3.75;;;2.20;;
72755;SDS011;60881;55.002;73.232;2022-07-29T03:10:36;5.40;;;1.90;;
72755;SDS011;60881;55.002;73.232;2022-07-29T03:13:05;6.13;;;2.13;;
72755;SDS011;60881;55.002;73.232;2022-07-29T03:15:33;7.95;;;1.60;;
72755;SDS011;60881;55.002;73.232;2022-07-29T03:18:00;5.45;;;1.88;;
72755;SDS011;60881;55.002;73.232;2022-07-29T03:20:28;3.13;;;1.80;;
72755;SDS011;60881;55.002;73.232;2022-07-29T03:22:55;5.30;;;1.50;;
72755;SDS011;60881;55.002;73.232;2022-07-29T03:25:22;5.32;;;1.80;;
72755;SDS011;60881;55.002;73.232;2022-07-29T03:27:48;3.67;;;1.85;;
72755;SDS011;60881;55.002;73.232;2022-07-29T03:30:15;4.85;;;1.50;;
72755;SDS011;60881;55.002;73.232;2022-07-29T03:32:46;4.07;;;1.98;;
72755;SDS011;60881;55.002;73.232;2022-07-29T03:35:12;4.00;;;1.75;;
72755;SDS011;60881;55.002;73.232;2022-07-29T03:37:39;6.55;;;1.88;;
72755;SDS011;60881;55.002;73.232;2022-07-29T03:40:07;13.50;;;6.60;;
72755;SDS011;60881;55.002;73.232;2022-07-29T03:42:36;2.25;;;1.60;;
72755;SDS011;60881;55.002;73.232;2022-07-29T03:45:07;1.38;;;1.15;;
72755;SDS011;60881;55.002;73.232;2022-07-29T03:47:47;1.77;;;1.40;;
72755;SDS011;60881;55.002;73.232;2022-07-29T03:50:17;3.17;;;1.40;;
72755;SDS011;60881;55.002;73.232;2022-07-29T03:52:46;2.17;;;1.40;;
72755;SDS011;60881;55.002;73.232;2022-07-29T03:55:23;1.48;;;1.20;;
72755;SDS011;60881;55.002;73.232;2022-07-29T03:57:50;2.20;;;1.50;;
72755;SDS011;60881;55.002;73.232;2022-07-29T04:00:18;2.53;;;1.30;;
72755;SDS011;60881;55.002;73.232;2022-07-29T04:02:50;2.35;;;1.40;;
72755;SDS011;60881;55.002;73.232;2022-07-29T04:05:17;2.25;;;1.42;;
72755;SDS011;60881;55.002;73.232;2022-07-29T04:07:44;2.85;;;1.70;;
72755;SDS011;60881;55.002;73.232;2022-07-29T04:10:12;2.95;;;1.67;;
72755;SDS011;60881;55.002;73.232;2022-07-29T04:12:39;2.70;;;1.42;;
72755;SDS011;60881;55.002;73.232;2022-07-29T04:15:10;4.03;;;2.00;;
72755;SDS011;60881;55.002;73.232;2022-07-29T04:17:37;4.13;;;1.80;;
72755;SDS011;60881;55.002;73.232;2022-07-29T04:20:08;2.78;;;1.95;;
72755;SDS011;60881;55.002;73.232;2022-07-29T04:22:39;6.63;;;2.40;;
72755;SDS011;60881;55.002;73.232;2022-07-29T04:25:07;4.15;;;2.70;;
72755;SDS011;60881;55.002;73.232;2022-07-29T04:27:34;4.93;;;3.08;;
72755;SDS011;60881;55.002;73.232;2022-07-29T04:30:02;8.88;;;3.60;;
72755;SDS011;60881;55.002;73.232;2022-07-29T04:32:30;7.60;;;3.92;;
72755;SDS011;60881;55.002;73.232;2022-07-29T04:34:56;7.30;;;4.10;;
72755;SDS011;60881;55.002;73.232;2022-07-29T04:37:34;7.32;;;4.65;;
72755;SDS011;60881;55.002;73.232;2022-07-29T04:40:01;9.27;;;5.28;;
72755;SDS011;60881;55.002;73.232;2022-07-29T04:42:29;10.82;;;5.45;;
72755;SDS011;60881;55.002;73.232;2022-07-29T04:44:56;12.73;;;5.68;;
72755;SDS011;60881;55.002;73.232;2022-07-29T04:47:27;11.68;;;5.75;;
72755;SDS011;60881;55.002;73.232;2022-07-29T04:49:55;11.95;;;5.88;;
72755;SDS011;60881;55.002;73.232;2022-07-29T04:52:22;9.25;;;5.68;;
72755;SDS011;60881;55.002;73.232;2022-07-29T04:54:48;16.70;;;6.22;;
72755;SDS011;60881;55.002;73.232;2022-07-29T04:57:15;17.73;;;6.53;;
72755;SDS011;60881;55.002;73.232;2022-07-29T04:59:48;14.50;;;6.40;;
72755;SDS011;60881;55.002;73.232;2022-07-29T05:02:15;21.65;;;5.95;;
72755;SDS011;60881;55.002;73.232;2022-07-29T05:04:42;14.27;;;6.05;;
72755;SDS011;60881;55.002;73.232;2022-07-29T05:07:11;13.30;;;6.28;;
72755;SDS011;60881;55.002;73.232;2022-07-29T05:09:38;12.48;;;6.43;;
72755;SDS011;60881;55.002;73.232;2022-07-29T05:12:06;13.82;;;5.88;;
72755;SDS011;60881;55.002;73.232;2022-07-29T05:14:33;13.93;;;6.00;;
72755;SDS011;60881;55.002;73.232;2022-07-29T05:17:06;17.60;;;6.30;;
72755;SDS011;60881;55.002;73.232;2022-07-29T05:19:36;13.73;;;5.93;;
72755;SDS011;60881;55.002;73.232;2022-07-29T05:22:03;17.60;;;6.38;;
72755;SDS011;60881;55.002;73.232;2022-07-29T05:24:31;13.00;;;6.25;;
72755;SDS011;60881;55.002;73.232;2022-07-29T05:26:58;8.65;;;5.47;;
72755;SDS011;60881;55.002;73.232;2022-07-29T05:29:24;14.02;;;5.55;;
72755;SDS011;60881;55.002;73.232;2022-07-29T05:31:53;19.73;;;5.90;;
72755;SDS011;60881;55.002;73.232;2022-07-29T05:34:20;12.98;;;5.45;;
72755;SDS011;60881;55.002;73.232;2022-07-29T05:36:46;13.65;;;5.35;;
72755;SDS011;60881;55.002;73.232;2022-07-29T05:39:13;12.15;;;5.00;;
72755;SDS011;60881;55.002;73.232;2022-07-29T05:41:40;9.60;;;5.10;;
72755;SDS011;60881;55.002;73.232;2022-07-29T05:44:07;16.98;;;6.15;;
72755;SDS011;60881;55.002;73.232;2022-07-29T05:46:34;9.68;;;4.60;;
72755;SDS011;60881;55.002;73.232;2022-07-29T05:49:02;8.50;;;4.70;;
72755;SDS011;60881;55.002;73.232;2022-07-29T05:51:28;11.90;;;4.72;;
72755;SDS011;60881;55.002;73.232;2022-07-29T05:53:56;9.93;;;4.85;;
72755;SDS011;60881;55.002;73.232;2022-07-29T05:56:24;20.38;;;9.30;;
72755;SDS011;60881;55.002;73.232;2022-07-29T05:58:57;14.43;;;5.07;;
72755;SDS011;60881;55.002;73.232;2022-07-29T06:01:28;12.55;;;4.50;;
72755;SDS011;60881;55.002;73.232;2022-07-29T06:04:05;13.23;;;4.38;;
72755;SDS011;60881;55.002;73.232;2022-07-29T06:06:34;12.95;;;4.50;;
72755;SDS011;60881;55.002;73.232;2022-07-29T06:09:01;11.30;;;4.53;;
72755;SDS011;60881;55.002;73.232;2022-07-29T06:11:27;13.95;;;4.20;;
72755;SDS011;60881;55.002;73.232;2022-07-29T06:13:54;9.45;;;4.18;;
72755;SDS011;60881;55.002;73.232;2022-07-29T06:16:26;13.50;;;4.30;;
72755;SDS011;60881;55.002;73.232;2022-07-29T06:18:53;15.18;;;4.43;;
72755;SDS011;60881;55.002;73.232;2022-07-29T06:21:20;9.32;;;4.10;;
72755;SDS011;60881;55.002;73.232;2022-07-29T06:23:48;9.30;;;4.53;;
72755;SDS011;60881;55.002;73.232;2022-07-29T06:26:14;11.93;;;4.50;;
72755;SDS011;60881;55.002;73.232;2022-07-29T06:28:42;16.35;;;4.55;;
72755;SDS011;60881;55.002;73.232;2022-07-29T06:31:12;13.15;;;4.18;;
72755;SDS011;60881;55.002;73.232;2022-07-29T06:33:38;11.30;;;4.47;;
72755;SDS011;60881;55.002;73.232;2022-07-29T06:36:05;11.18;;;4.80;;
72755;SDS011;60881;55.002;73.232;2022-07-29T06:38:36;17.48;;;4.20;;
72755;SDS011;60881;55.002;73.232;2022-07-29T06:41:04;7.68;;;4.20;;
72755;SDS011;60881;55.002;73.232;2022-07-29T06:43:37;13.15;;;4.70;;
72755;SDS011;60881;55.002;73.232;2022-07-29T06:46:14;8.95;;;4.68;;
72755;SDS011;60881;55.002;73.232;2022-07-29T06:48:48;11.85;;;4.80;;
72755;SDS011;60881;55.002;73.232;2022-07-29T06:51:15;9.30;;;4.07;;
72755;SDS011;60881;55.002;73.232;2022-07-29T06:53:42;12.82;;;4.68;;
72755;SDS011;60881;55.002;73.232;2022-07-29T06:56:08;13.50;;;4.47;;
72755;SDS011;60881;55.002;73.232;2022-07-29T06:58:35;9.55;;;4.10;;
72755;SDS011;60881;55.002;73.232;2022-07-29T07:01:03;16.67;;;4.82;;
72755;SDS011;60881;55.002;73.232;2022-07-29T07:03:30;10.35;;;4.82;;
72755;SDS011;60881;55.002;73.232;2022-07-29T07:05:58;17.67;;;4.93;;
72755;SDS011;60881;55.002;73.232;2022-07-29T07:08:24;15.25;;;4.60;;
72755;SDS011;60881;55.002;73.232;2022-07-29T07:10:51;9.35;;;4.25;;
72755;SDS011;60881;55.002;73.232;2022-07-29T07:13:18;14.55;;;4.45;;
72755;SDS011;60881;55.002;73.232;2022-07-29T07:15:46;17.90;;;4.20;;
72755;SDS011;60881;55.002;73.232;2022-07-29T07:18:16;14.00;;;4.53;;
72755;SDS011;60881;55.002;73.232;2022-07-29T07:20:54;11.85;;;4.32;;
72755;SDS011;60881;55.002;73.232;2022-07-29T07:23:20;9.52;;;4.22;;
72755;SDS011;60881;55.002;73.232;2022-07-29T07:25:47;10.77;;;4.35;;
72755;SDS011;60881;55.002;73.232;2022-07-29T07:28:14;12.88;;;4.43;;
72755;SDS011;60881;55.002;73.232;2022-07-29T07:30:41;15.27;;;3.90;;
72755;SDS011;60881;55.002;73.232;2022-07-29T07:33:11;13.05;;;3.92;;
72755;SDS011;60881;55.002;73.232;2022-07-29T07:35:39;15.05;;;4.20;;
72755;SDS011;60881;55.002;73.232;2022-07-29T07:38:16;17.63;;;4.15;;
72755;SDS011;60881;55.002;73.232;2022-07-29T07:40:42;12.43;;;4.65;;
72755;SDS011;60881;55.002;73.232;2022-07-29T07:43:09;9.73;;;4.22;;
72755;SDS011;60881;55.002;73.232;2022-07-29T07:45:35;8.43;;;4.25;;
72755;SDS011;60881;55.002;73.232;2022-07-29T07:48:03;14.40;;;4.10;;
72755;SDS011;60881;55.002;73.232;2022-07-29T07:50:30;16.38;;;4.20;;
72755;SDS011;60881;55.002;73.232;2022-07-29T07:52:57;10.90;;;4.40;;
72755;SDS011;60881;55.002;73.232;2022-07-29T07:55:23;8.02;;;4.18;;
72755;SDS011;60881;55.002;73.232;2022-07-29T07:58:01;11.88;;;4.28;;
72755;SDS011;60881;55.002;73.232;2022-07-29T08:00:27;20.08;;;4.53;;
72755;SDS011;60881;55.002;73.232;2022-07-29T08:02:54;10.65;;;4.30;;
72755;SDS011;60881;55.002;73.232;2022-07-29T08:05:22;11.70;;;4.22;;
72755;SDS011;60881;55.002;73.232;2022-07-29T08:07:49;7.63;;;4.03;;
72755;SDS011;60881;55.002;73.232;2022-07-29T08:10:16;13.60;;;4.43;;
72755;SDS011;60881;55.002;73.232;2022-07-29T08:13:06;9.85;;;4.00;;
72755;SDS011;60881;55.002;73.232;2022-07-29T08:15:36;13.18;;;4.20;;
72755;SDS011;60881;55.002;73.232;2022-07-29T08:18:05;14.00;;;3.90;;
72755;SDS011;60881;55.002;73.232;2022-07-29T08:20:32;19.33;;;4.00;;
72755;SDS011;60881;55.002;73.232;2022-07-29T08:23:01;9.05;;;3.65;;
72755;SDS011;60881;55.002;73.232;2022-07-29T08:25:37;11.68;;;4.07;;
72755;SDS011;60881;55.002;73.232;2022-07-29T08:28:06;8.60;;;4.00;;
72755;SDS011;60881;55.002;73.232;2022-07-29T08:30:34;12.13;;;3.60;;
72755;SDS011;60881;55.002;73.232;2022-07-29T08:33:01;10.95;;;3.97;;
72755;SDS011;60881;55.002;73.232;2022-07-29T08:35:29;10.75;;;3.60;;
72755;SDS011;60881;55.002;73.232;2022-07-29T08:37:55;13.95;;;3.75;;
72755;SDS011;60881;55.002;73.232;2022-07-29T08:40:22;12.68;;;3.70;;
72755;SDS011;60881;55.002;73.232;2022-07-29T08:42:51;11.05;;;3.70;;
72755;SDS011;60881;55.002;73.232;2022-07-29T08:45:22;9.02;;;4.10;;
72755;SDS011;60881;55.002;73.232;2022-07-29T08:47:52;14.90;;;4.00;;
72755;SDS011;60881;55.002;73.232;2022-07-29T08:50:19;11.35;;;3.97;;
72755;SDS011;60881;55.002;73.232;2022-07-29T08:52:46;11.50;;;4.15;;
72755;SDS011;60881;55.002;73.232;2022-07-29T08:55:24;13.52;;;3.83;;
72755;SDS011;60881;55.002;73.232;2022-07-29T08:57:51;15.82;;;3.85;;
72755;SDS011;60881;55.002;73.232;2022-07-29T09:00:18;6.88;;;3.45;;
72755;SDS011;60881;55.002;73.232;2022-07-29T09:02:45;11.13;;;3.65;;
72755;SDS011;60881;55.002;73.232;2022-07-29T09:05:17;10.25;;;3.97;;
72755;SDS011;60881;55.002;73.232;2022-07-29T09:07:44;16.33;;;4.22;;
72755;SDS011;60881;55.002;73.232;2022-07-29T09:10:13;10.70;;;3.80;;
72755;SDS011;60881;55.002;73.232;2022-07-29T09:12:40;9.73;;;3.90;;
72755;SDS011;60881;55.002;73.232;2022-07-29T09:15:08;11.73;;;3.60;;
72755;SDS011;60881;55.002;73.232;2022-07-29T09:17:41;13.75;;;3.83;;
72755;SDS011;60881;55.002;73.232;2022-07-29T09:20:11;8.05;;;4.00;;
72755;SDS011;60881;55.002;73.232;2022-07-29T09:22:42;12.20;;;4.00;;
72755;SDS011;60881;55.002;73.232;2022-07-29T09:25:35;11.25;;;4.03;;
72755;SDS011;60881;55.002;73.232;2022-07-29T09:28:14;12.27;;;3.83;;
72755;SDS011;60881;55.002;73.232;2022-07-29T09:30:51;12.85;;;3.90;;
72755;SDS011;60881;55.002;73.232;2022-07-29T09:33:33;18.77;;;4.32;;
72755;SDS011;60881;55.002;73.232;2022-07-29T09:36:08;11.07;;;3.92;;
72755;SDS011;60881;55.002;73.232;2022-07-29T09:38:40;9.82;;;3.70;;
72755;SDS011;60881;55.002;73.232;2022-07-29T09:41:06;12.63;;;3.90;;
72755;SDS011;60881;55.002;73.232;2022-07-29T09:43:34;14.60;;;4.07;;
72755;SDS011;60881;55.002;73.232;2022-07-29T09:46:11;17.73;;;3.92;;
72755;SDS011;60881;55.002;73.232;2022-07-29T09:48:38;13.93;;;3.75;;
72755;SDS011;60881;55.002;73.232;2022-07-29T09:51:16;8.00;;;3.75;;
72755;SDS011;60881;55.002;73.232;2022-07-29T09:53:45;16.35;;;4.10;;
72755;SDS011;60881;55.002;73.232;2022-07-29T09:56:12;10.50;;;3.75;;
72755;SDS011;60881;55.002;73.232;2022-07-29T09:59:04;7.07;;;3.70;;
72755;SDS011;60881;55.002;73.232;2022-07-29T10:01:32;7.85;;;3.63;;
72755;SDS011;60881;55.002;73.232;2022-07-29T10:03:58;14.68;;;3.80;;
72755;SDS011;60881;55.002;73.232;2022-07-29T10:06:25;7.35;;;3.70;;
72755;SDS011;60881;55.002;73.232;2022-07-29T10:08:51;11.07;;;3.90;;
72755;SDS011;60881;55.002;73.232;2022-07-29T10:11:19;8.77;;;3.63;;
72755;SDS011;60881;55.002;73.232;2022-07-29T10:13:46;14.77;;;3.90;;
72755;SDS011;60881;55.002;73.232;2022-07-29T10:16:16;14.63;;;3.75;;
72755;SDS011;60881;55.002;73.232;2022-07-29T10:18:43;11.73;;;4.30;;
72755;SDS011;60881;55.002;73.232;2022-07-29T10:21:12;7.88;;;3.72;;
72755;SDS011;60881;55.002;73.232;2022-07-29T10:23:39;7.28;;;3.80;;
72755;SDS011;60881;55.002;73.232;2022-07-29T10:26:06;10.48;;;3.60;;
72755;SDS011;60881;55.002;73.232;2022-07-29T10:28:33;7.93;;;3.95;;
72755;SDS011;60881;55.002;73.232;2022-07-29T10:31:08;8.27;;;3.83;;
72755;SDS011;60881;55.002;73.232;2022-07-29T10:39:43;11.75;;;4.07;;
72755;SDS011;60881;55.002;73.232;2022-07-29T10:42:23;13.48;;;4.10;;
72755;SDS011;60881;55.002;73.232;2022-07-29T10:44:51;10.52;;;3.90;;
72755;SDS011;60881;55.002;73.232;2022-07-29T10:47:23;11.32;;;3.80;;
72755;SDS011;60881;55.002;73.232;2022-07-29T10:50:03;10.18;;;3.97;;
72755;SDS011;60881;55.002;73.232;2022-07-29T10:55:38;8.10;;;3.80;;
72755;SDS011;60881;55.002;73.232;2022-07-29T10:58:11;10.48;;;3.90;;
72755;SDS011;60881;55.002;73.232;2022-07-29T11:00:43;19.67;;;3.97;;
72755;SDS011;60881;55.002;73.232;2022-07-29T11:03:24;16.88;;;3.95;;
72755;SDS011;60881;55.002;73.232;2022-07-29T11:06:10;7.15;;;3.70;;
72755;SDS011;60881;55.002;73.232;2022-07-29T11:08:38;14.35;;;4.47;;
72755;SDS011;60881;55.002;73.232;2022-07-29T11:13:57;13.77;;;4.07;;
72755;SDS011;60881;55.002;73.232;2022-07-29T11:16:24;12.65;;;4.00;;
72755;SDS011;60881;55.002;73.232;2022-07-29T11:21:38;7.82;;;3.75;;
72755;SDS011;60881;55.002;73.232;2022-07-29T11:24:23;6.25;;;3.60;;
72755;SDS011;60881;55.002;73.232;2022-07-29T11:27:06;10.65;;;3.78;;
72755;SDS011;60881;55.002;73.232;2022-07-29T11:29:53;11.68;;;3.78;;
72755;SDS011;60881;55.002;73.232;2022-07-29T11:32:20;13.75;;;4.43;;
72755;SDS011;60881;55.002;73.232;2022-07-29T11:34:50;10.48;;;3.78;;
72755;SDS011;60881;55.002;73.232;2022-07-29T11:37:37;13.15;;;4.00;;
72755;SDS011;60881;55.002;73.232;2022-07-29T11:47:39;16.20;;;3.67;;
72755;SDS011;60881;55.002;73.232;2022-07-29T11:50:09;5.97;;;3.60;;
72755;SDS011;60881;55.002;73.232;2022-07-29T11:52:39;8.82;;;3.65;;
72755;SDS011;60881;55.002;73.232;2022-07-29T11:55:15;11.13;;;3.47;;
72755;SDS011;60881;55.002;73.232;2022-07-29T11:57:49;7.82;;;3.83;;
72755;SDS011;60881;55.002;73.232;2022-07-29T12:02:50;8.65;;;3.50;;
72755;SDS011;60881;55.002;73.232;2022-07-29T12:05:18;10.38;;;3.08;;
72755;SDS011;60881;55.002;73.232;2022-07-29T12:07:45;17.90;;;3.47;;
72755;SDS011;60881;55.002;73.232;2022-07-29T12:10:13;17.20;;;3.45;;
72755;SDS011;60881;55.002;73.232;2022-07-29T12:12:40;9.40;;;3.10;;
72755;SDS011;60881;55.002;73.232;2022-07-29T12:15:16;8.20;;;3.25;;
72755;SDS011;60881;55.002;73.232;2022-07-29T12:17:47;13.35;;;3.22;;
72755;SDS011;60881;55.002;73.232;2022-07-29T12:20:14;8.35;;;2.90;;
72755;SDS011;60881;55.002;73.232;2022-07-29T12:22:49;9.55;;;2.92;;
72755;SDS011;60881;55.002;73.232;2022-07-29T12:25:25;15.45;;;3.28;;
72755;SDS011;60881;55.002;73.232;2022-07-29T12:27:59;12.13;;;3.10;;
72755;SDS011;60881;55.002;73.232;2022-07-29T12:30:43;14.75;;;3.20;;
72755;SDS011;60881;55.002;73.232;2022-07-29T12:33:22;15.43;;;3.60;;
72755;SDS011;60881;55.002;73.232;2022-07-29T12:35:53;7.90;;;3.10;;
72755;SDS011;60881;55.002;73.232;2022-07-29T12:40:51;11.77;;;2.83;;
72755;SDS011;60881;55.002;73.232;2022-07-29T12:43:26;12.45;;;3.30;;
72755;SDS011;60881;55.002;73.232;2022-07-29T12:45:54;10.88;;;2.95;;
72755;SDS011;60881;55.002;73.232;2022-07-29T12:48:41;8.88;;;3.10;;
72755;SDS011;60881;55.002;73.232;2022-07-29T12:51:09;15.13;;;2.85;;
72755;SDS011;60881;55.002;73.232;2022-07-29T12:53:38;10.52;;;3.00;;
72755;SDS011;60881;55.002;73.232;2022-07-29T12:56:06;9.98;;;2.65;;
72755;SDS011;60881;55.002;73.232;2022-07-29T12:58:41;6.03;;;2.83;;
72755;SDS011;60881;55.002;73.232;2022-07-29T13:01:15;10.52;;;5.22;;
72755;SDS011;60881;55.002;73.232;2022-07-29T13:06:34;5.70;;;2.60;;
72755;SDS011;60881;55.002;73.232;2022-07-29T13:09:14;15.27;;;3.33;;
72755;SDS011;60881;55.002;73.232;2022-07-29T13:11:42;8.32;;;3.00;;
72755;SDS011;60881;55.002;73.232;2022-07-29T13:14:32;11.43;;;2.78;;
72755;SDS011;60881;55.002;73.232;2022-07-29T13:17:22;11.20;;;3.00;;
72755;SDS011;60881;55.002;73.232;2022-07-29T13:19:51;12.52;;;2.67;;
72755;SDS011;60881;55.002;73.232;2022-07-29T13:22:22;6.40;;;2.40;;
72755;SDS011;60881;55.002;73.232;2022-07-29T13:24:51;8.25;;;2.13;;
72755;SDS011;60881;55.002;73.232;2022-07-29T13:27:24;13.40;;;2.00;;
72755;SDS011;60881;55.002;73.232;2022-07-29T13:29:52;10.68;;;2.50;;
72755;SDS011;60881;55.002;73.232;2022-07-29T13:32:22;5.88;;;2.38;;
72755;SDS011;60881;55.002;73.232;2022-07-29T13:34:49;6.57;;;2.30;;
72755;SDS011;60881;55.002;73.232;2022-07-29T13:37:17;11.60;;;2.13;;
72755;SDS011;60881;55.002;73.232;2022-07-29T13:39:45;4.57;;;2.13;;
72755;SDS011;60881;55.002;73.232;2022-07-29T13:42:13;8.50;;;2.55;;
72755;SDS011;60881;55.002;73.232;2022-07-29T13:44:39;7.10;;;2.22;;
72755;SDS011;60881;55.002;73.232;2022-07-29T13:47:07;4.68;;;2.10;;
72755;SDS011;60881;55.002;73.232;2022-07-29T13:49:34;9.60;;;2.83;;
72755;SDS011;60881;55.002;73.232;2022-07-29T13:52:01;7.40;;;2.40;;
72755;SDS011;60881;55.002;73.232;2022-07-29T13:54:29;2.78;;;1.92;;
72755;SDS011;60881;55.002;73.232;2022-07-29T13:56:55;5.85;;;2.03;;
72755;SDS011;60881;55.002;73.232;2022-07-29T13:59:31;5.95;;;2.13;;
72755;SDS011;60881;55.002;73.232;2022-07-29T14:01:58;10.05;;;1.98;;
72755;SDS011;60881;55.002;73.232;2022-07-29T14:04:26;4.65;;;2.03;;
72755;SDS011;60881;55.002;73.232;2022-07-29T14:06:54;10.35;;;2.15;;
72755;SDS011;60881;55.002;73.232;2022-07-29T14:09:20;4.50;;;2.08;;
72755;SDS011;60881;55.002;73.232;2022-07-29T14:11:56;10.68;;;2.03;;
72755;SDS011;60881;55.002;73.232;2022-07-29T14:14:22;10.88;;;2.00;;
72755;SDS011;60881;55.002;73.232;2022-07-29T14:17:00;5.22;;;2.03;;
72755;SDS011;60881;55.002;73.232;2022-07-29T14:19:28;4.30;;;2.10;;
72755;SDS011;60881;55.002;73.232;2022-07-29T14:21:55;8.02;;;2.00;;
72755;SDS011;60881;55.002;73.232;2022-07-29T14:24:26;10.40;;;2.33;;
72755;SDS011;60881;55.002;73.232;2022-07-29T14:26:52;6.22;;;1.88;;
72755;SDS011;60881;55.002;73.232;2022-07-29T14:29:19;12.93;;;2.63;;
72755;SDS011;60881;55.002;73.232;2022-07-29T14:31:47;6.43;;;2.00;;
72755;SDS011;60881;55.002;73.232;2022-07-29T14:34:13;10.57;;;2.10;;
72755;SDS011;60881;55.002;73.232;2022-07-29T14:36:41;11.95;;;2.17;;
72755;SDS011;60881;55.002;73.232;2022-07-29T14:39:18;6.25;;;2.03;;
72755;SDS011;60881;55.002;73.232;2022-07-29T14:41:50;6.97;;;2.00;;
72755;SDS011;60881;55.002;73.232;2022-07-29T14:44:17;7.45;;;2.30;;
72755;SDS011;60881;55.002;73.232;2022-07-29T14:46:44;10.07;;;2.15;;
72755;SDS011;60881;55.002;73.232;2022-07-29T14:49:10;12.15;;;2.40;;
72755;SDS011;60881;55.002;73.232;2022-07-29T14:51:37;8.70;;;2.60;;
72755;SDS011;60881;55.002;73.232;2022-07-29T14:54:13;14.65;;;2.40;;
72755;SDS011;60881;55.002;73.232;2022-07-29T14:56:40;5.65;;;2.33;;
72755;SDS011;60881;55.002;73.232;2022-07-29T14:59:07;7.57;;;2.58;;
72755;SDS011;60881;55.002;73.232;2022-07-29T15:01:35;14.18;;;2.60;;
72755;SDS011;60881;55.002;73.232;2022-07-29T15:04:01;8.82;;;2.10;;
72755;SDS011;60881;55.002;73.232;2022-07-29T15:06:29;6.97;;;2.70;;
72755;SDS011;60881;55.002;73.232;2022-07-29T15:08:56;9.57;;;2.20;;
72755;SDS011;60881;55.002;73.232;2022-07-29T15:11:22;12.60;;;2.28;;
72755;SDS011;60881;55.002;73.232;2022-07-29T15:13:49;7.50;;;2.20;;
72755;SDS011;60881;55.002;73.232;2022-07-29T15:16:25;5.85;;;2.30;;
72755;SDS011;60881;55.002;73.232;2022-07-29T15:18:52;7.68;;;2.00;;
72755;SDS011;60881;55.002;73.232;2022-07-29T15:21:18;6.60;;;2.40;;
72755;SDS011;60881;55.002;73.232;2022-07-29T15:23:45;11.82;;;1.90;;
72755;SDS011;60881;55.002;73.232;2022-07-29T15:26:11;6.07;;;1.80;;
72755;SDS011;60881;55.002;73.232;2022-07-29T15:28:38;9.05;;;2.03;;
72755;SDS011;60881;55.002;73.232;2022-07-29T15:31:05;11.07;;;2.33;;
72755;SDS011;60881;55.002;73.232;2022-07-29T15:33:31;8.57;;;2.13;;
72755;SDS011;60881;55.002;73.232;2022-07-29T15:35:59;7.00;;;2.25;;
72755;SDS011;60881;55.002;73.232;2022-07-29T15:38:25;11.07;;;2.25;;
72755;SDS011;60881;55.002;73.232;2022-07-29T15:40:54;17.40;;;2.15;;
72755;SDS011;60881;55.002;73.232;2022-07-29T15:43:21;14.10;;;1.80;;